Time;durP1;ratioP1;P1;durP2;ratioP2;P2;SDS_P1;SDS_P2;PMS_P1;PMS_P2;Temp;Humidity;BMP_temperature;BMP_pressure;BME280_temperature;BME280_humidity;BME280_pressure;Samples;Min_cycle;Max_cycle;Signal;HPM_P1;HPM_P2
2022/01/19 00:00:49;;;;;;;5.60;5.00;;;;;;;;;;4986662;28;20461;-71
2022/01/19 00:03:16;;;;;;;7.47;5.50;;;;;;;;;;4985266;28;20485;-71
2022/01/19 00:05:44;;;;;;;8.90;6.30;;;;;;;;;;4986498;28;20832;-71
2022/01/19 00:08:16;;;;;;;10.50;5.20;;;;;;;;;;4985495;28;20536;-70
2022/01/19 00:10:45;;;;;;;8.27;6.10;;;;;;;;;;4985496;28;21030;-70
2022/01/19 00:13:12;;;;;;;8.73;6.30;;;;;;;;;;4995277;28;20875;-70
2022/01/19 00:15:39;;;;;;;10.70;6.13;;;;;;;;;;4984478;28;20481;-69
2022/01/19 00:18:07;;;;;;;6.13;5.53;;;;;;;;;;4986686;28;20549;-70
2022/01/19 00:20:34;;;;;;;7.30;5.50;;;;;;;;;;4992982;28;20445;-70
2022/01/19 00:23:02;;;;;;;6.53;5.60;;;;;;;;;;4980040;28;20581;-71
2022/01/19 00:25:30;;;;;;;5.43;4.57;;;;;;;;;;4983710;28;20600;-70
2022/01/19 00:27:58;;;;;;;9.53;6.57;;;;;;;;;;4985597;28;20453;-71
2022/01/19 00:30:26;;;;;;;7.10;5.47;;;;;;;;;;4984483;28;20463;-71
2022/01/19 00:32:54;;;;;;;6.57;5.13;;;;;;;;;;4985991;28;20457;-70
2022/01/19 00:35:21;;;;;;;11.67;4.97;;;;;;;;;;4983854;28;20484;-70
2022/01/19 00:37:48;;;;;;;8.13;4.90;;;;;;;;;;4989331;28;20527;-70
2022/01/19 00:40:15;;;;;;;9.70;5.67;;;;;;;;;;4982303;28;20455;-70
2022/01/19 00:42:42;;;;;;;6.53;5.27;;;;;;;;;;4982723;28;20476;-70
2022/01/19 00:45:12;;;;;;;6.00;4.90;;;;;;;;;;4991570;28;20810;-70
2022/01/19 00:47:39;;;;;;;6.87;6.07;;;;;;;;;;4985411;28;20460;-70
2022/01/19 00:50:07;;;;;;;7.50;4.97;;;;;;;;;;4986323;28;20454;-71
2022/01/19 00:52:35;;;;;;;8.87;6.30;;;;;;;;;;4980338;28;20540;-71
2022/01/19 00:55:03;;;;;;;9.50;6.30;;;;;;;;;;4982241;28;20457;-68
2022/01/19 00:57:30;;;;;;;6.57;4.93;;;;;;;;;;4987161;28;20454;-70
2022/01/19 00:59:57;;;;;;;8.80;6.80;;;;;;;;;;4982414;28;20458;-70
2022/01/19 01:02:26;;;;;;;8.60;6.23;;;;;;;;;;4978839;28;20512;-70
2022/01/19 01:04:53;;;;;;;13.23;6.50;;;;;;;;;;4989129;28;20507;-71
2022/01/19 01:07:20;;;;;;;9.17;6.03;;;;;;;;;;4978972;28;21018;-70
2022/01/19 01:09:47;;;;;;;9.70;6.00;;;;;;;;;;4989866;28;20445;-70
2022/01/19 01:12:21;;;;;;;7.37;6.27;;;;;;;;;;4982639;28;20442;-70
2022/01/19 01:20:31;;;;;;;5.67;4.93;;;;;;;;;;4974619;28;20451;-70
2022/01/19 01:22:58;;;;;;;8.37;6.67;;;;;;;;;;4979807;28;20610;-70
2022/01/19 01:25:25;;;;;;;8.17;6.13;;;;;;;;;;4984806;28;20491;-70
2022/01/19 01:27:53;;;;;;;8.80;5.97;;;;;;;;;;4984403;28;20455;-70
2022/01/19 01:30:20;;;;;;;8.70;6.77;;;;;;;;;;4979426;28;20539;-70
2022/01/19 01:32:49;;;;;;;10.60;7.80;;;;;;;;;;4979210;28;20476;-70
2022/01/19 01:35:16;;;;;;;14.03;6.90;;;;;;;;;;4983576;28;20511;-70
2022/01/19 01:37:43;;;;;;;8.70;6.10;;;;;;;;;;4988487;28;20533;-70
2022/01/19 01:40:13;;;;;;;9.00;7.20;;;;;;;;;;4973801;28;20503;-70
2022/01/19 01:42:41;;;;;;;7.67;5.30;;;;;;;;;;4982177;28;20451;-70
2022/01/19 01:45:12;;;;;;;9.87;6.63;;;;;;;;;;4984505;28;20461;-70
2022/01/19 01:47:43;;;;;;;7.50;6.10;;;;;;;;;;4984505;28;20477;-70
2022/01/19 01:55:43;;;;;;;12.37;6.97;;;;;;;;;;4986957;28;20816;-70
2022/01/19 01:58:10;;;;;;;12.13;7.03;;;;;;;;;;4982785;28;20476;-70
2022/01/19 02:00:37;;;;;;;7.30;6.00;;;;;;;;;;4984807;28;20473;-70
2022/01/19 02:03:04;;;;;;;14.93;7.30;;;;;;;;;;4982292;28;20581;-70
2022/01/19 02:05:36;;;;;;;7.03;5.40;;;;;;;;;;4978690;28;20504;-70
2022/01/19 02:08:08;;;;;;;11.80;6.97;;;;;;;;;;4990255;28;20540;-70
2022/01/19 02:10:42;;;;;;;7.87;6.17;;;;;;;;;;4974977;28;20497;-70
2022/01/19 02:16:12;;;;;;;7.90;6.33;;;;;;;;;;4977066;28;20433;-71
2022/01/19 02:21:42;;;;;;;14.53;6.93;;;;;;;;;;4984892;28;20792;-70
2022/01/19 02:24:12;;;;;;;8.90;5.70;;;;;;;;;;4981641;28;20484;-70
2022/01/19 02:26:52;;;;;;;11.17;6.27;;;;;;;;;;4981267;28;20478;-70
2022/01/19 02:29:46;;;;;;;8.17;6.00;;;;;;;;;;4972033;28;20795;-70
2022/01/19 02:40:27;;;;;;;15.20;8.00;;;;;;;;;;4978032;28;20808;-70
2022/01/19 02:43:07;;;;;;;8.50;7.20;;;;;;;;;;4985404;28;20450;-71
2022/01/19 02:51:06;;;;;;;14.13;7.77;;;;;;;;;;4984520;28;20441;-70
2022/01/19 02:53:36;;;;;;;9.00;6.33;;;;;;;;;;4983164;28;20870;-70
2022/01/19 02:56:08;;;;;;;10.10;6.87;;;;;;;;;;4981587;28;20962;-70
2022/01/19 02:58:40;;;;;;;9.57;6.70;;;;;;;;;;4979208;28;20969;-70
2022/01/19 03:09:22;;;;;;;13.80;7.43;;;;;;;;;;4975947;28;20441;-70
2022/01/19 03:11:49;;;;;;;9.90;7.30;;;;;;;;;;4977970;28;20525;-70
2022/01/19 03:14:17;;;;;;;12.50;7.80;;;;;;;;;;5003682;28;20463;-70
2022/01/19 03:16:45;;;;;;;7.90;6.07;;;;;;;;;;4986677;28;20437;-69
2022/01/19 03:19:12;;;;;;;9.63;7.10;;;;;;;;;;4984739;28;20807;-70
2022/01/19 03:21:40;;;;;;;7.13;5.20;;;;;;;;;;4980927;28;20458;-70
2022/01/19 03:24:08;;;;;;;15.07;7.37;;;;;;;;;;4985878;28;20481;-70
2022/01/19 03:26:37;;;;;;;14.50;7.20;;;;;;;;;;4988963;28;20531;-70
2022/01/19 03:29:04;;;;;;;9.80;6.53;;;;;;;;;;4984430;28;20455;-71
2022/01/19 03:31:31;;;;;;;7.80;5.83;;;;;;;;;;4981604;28;20479;-68
2022/01/19 03:33:59;;;;;;;12.87;7.10;;;;;;;;;;4989803;28;20535;-68
2022/01/19 03:36:26;;;;;;;9.20;7.77;;;;;;;;;;4985453;28;20454;-68
2022/01/19 03:38:53;;;;;;;10.50;7.37;;;;;;;;;;4981422;28;20950;-68
2022/01/19 03:41:20;;;;;;;10.60;7.37;;;;;;;;;;4988210;28;20881;-68
2022/01/19 03:43:49;;;;;;;10.70;7.20;;;;;;;;;;4987792;28;20492;-68
2022/01/19 03:46:16;;;;;;;13.60;7.57;;;;;;;;;;4983344;28;20454;-69
2022/01/19 03:48:45;;;;;;;11.70;8.03;;;;;;;;;;4976407;28;20454;-70
2022/01/19 03:51:13;;;;;;;13.13;7.80;;;;;;;;;;4980649;28;20540;-70
2022/01/19 03:53:41;;;;;;;10.33;7.10;;;;;;;;;;4981006;28;20445;-70
2022/01/19 03:56:08;;;;;;;15.97;10.10;;;;;;;;;;4987216;28;20458;-70
2022/01/19 03:58:36;;;;;;;10.97;7.87;;;;;;;;;;4979901;28;20532;-69
2022/01/19 04:01:06;;;;;;;10.87;7.20;;;;;;;;;;4981622;28;20476;-70
2022/01/19 04:03:53;;;;;;;11.60;8.03;;;;;;;;;;4979706;28;20454;-70
2022/01/19 04:06:24;;;;;;;9.73;7.57;;;;;;;;;;4984814;28;20445;-69
2022/01/19 04:08:51;;;;;;;10.27;8.67;;;;;;;;;;4980479;28;20476;-69
2022/01/19 04:11:21;;;;;;;9.50;6.37;;;;;;;;;;4983417;28;20445;-69
2022/01/19 04:14:21;;;;;;;11.47;8.40;;;;;;;;;;4990137;28;20449;-69
2022/01/19 04:16:47;;;;;;;11.30;7.60;;;;;;;;;;4982794;28;20449;-69
2022/01/19 04:19:23;;;;;;;11.50;7.33;;;;;;;;;;4982718;28;20459;-70
2022/01/19 04:21:51;;;;;;;10.83;7.37;;;;;;;;;;4986644;28;20807;-70
2022/01/19 04:24:18;;;;;;;16.50;7.60;;;;;;;;;;4984050;28;20515;-70
2022/01/19 04:26:50;;;;;;;13.30;7.63;;;;;;;;;;4981303;28;20483;-69
2022/01/19 04:29:17;;;;;;;11.67;7.90;;;;;;;;;;4985471;28;20446;-70
2022/01/19 04:31:44;;;;;;;11.43;7.83;;;;;;;;;;4983365;28;20450;-70
2022/01/19 04:34:14;;;;;;;14.10;8.27;;;;;;;;;;4984656;28;20487;-69
2022/01/19 04:37:10;;;;;;;13.93;7.10;;;;;;;;;;4989698;28;20477;-70
2022/01/19 04:45:32;;;;;;;10.03;7.37;;;;;;;;;;4984782;28;20845;-69
2022/01/19 05:01:47;;;;;;;13.27;7.87;;;;;;;;;;4982152;28;20431;-70
2022/01/19 05:04:28;;;;;;;10.93;8.60;;;;;;;;;;4990496;28;20839;-70
2022/01/19 05:07:08;;;;;;;16.83;9.67;;;5.60;99.90;;;;;;4978699;28;20456;-69
2022/01/19 05:15:06;;;;;;;14.20;7.33;;;1.00;97.80;;;;;;4981207;28;20461;-69
2022/01/19 05:17:33;;;;;;;11.67;7.73;;;1.00;21.90;;;;;;4980955;28;20455;-70
2022/01/19 05:20:00;;;;;;;15.87;9.10;;;0.80;39.80;;;;;;4977833;28;20754;-70
2022/01/19 05:22:28;;;;;;;10.50;7.97;;;0.70;93.20;;;;;;4981104;28;20457;-72
2022/01/19 05:24:55;;;;;;;13.80;8.63;;;0.60;99.90;;;;;;4978215;28;20576;-71
2022/01/19 05:27:22;;;;;;;14.70;8.40;;;0.40;99.90;;;;;;4983904;28;20543;-71
2022/01/19 05:29:49;;;;;;;14.00;8.83;;;0.60;99.90;;;;;;4985441;28;20511;-71
2022/01/19 05:32:17;;;;;;;13.17;8.53;;;0.60;99.90;;;;;;4979749;28;20544;-71
2022/01/19 05:34:44;;;;;;;11.73;7.83;;;0.60;99.90;;;;;;4987684;28;20458;-73
2022/01/19 05:37:11;;;;;;;13.40;8.53;;;0.60;99.90;;;;;;4991579;28;20461;-70
2022/01/19 05:39:39;;;;;;;10.80;7.27;;;0.60;99.90;;;;;;4979102;28;20459;-73
2022/01/19 05:42:13;;;;;;;13.63;8.60;;;0.80;99.90;;;;;;4982263;28;20489;-71
2022/01/19 05:44:41;;;;;;;17.93;7.93;;;1.00;99.90;;;;;;4985281;28;20487;-72
2022/01/19 05:47:08;;;;;;;12.80;9.03;;;1.00;21.50;;;;;;4984005;28;20445;-71
2022/01/19 05:49:35;;;;;;;12.17;8.27;;;0.90;20.80;;;;;;4979321;28;20856;-72
2022/01/19 05:52:01;;;;;;;12.80;8.00;;;0.90;30.00;;;;;;4979735;28;20477;-72
2022/01/19 05:54:28;;;;;;;17.10;9.73;;;1.20;4.00;;;;;;4984585;28;20453;-73
2022/01/19 05:56:57;;;;;;;14.10;7.90;;;1.00;1.00;;;;;;4984519;28;20457;-70
2022/01/19 05:59:24;;;;;;;11.87;7.50;;;1.00;5.10;;;;;;4978819;28;20456;-69
2022/01/19 06:01:51;;;;;;;14.23;8.50;;;0.90;1.00;;;;;;4978789;28;20972;-70
2022/01/19 06:04:18;;;;;;;11.67;7.00;;;0.90;44.50;;;;;;4985357;28;20492;-72
2022/01/19 06:06:45;;;;;;;15.90;8.00;;;0.90;2.80;;;;;;4983268;28;20582;-74
2022/01/19 06:09:22;;;;;;;13.77;8.33;;;0.90;36.50;;;;;;4978897;28;20536;-72
2022/01/19 06:11:50;;;;;;;8.70;6.87;;;0.70;1.10;;;;;;4991197;28;20575;-73
2022/01/19 06:14:18;;;;;;;12.83;8.80;;;0.70;26.80;;;;;;4991783;28;20453;-72
2022/01/19 06:16:45;;;;;;;14.10;9.00;;;0.80;20.50;;;;;;4977640;28;20457;-71
2022/01/19 06:19:14;;;;;;;15.57;8.00;;;0.90;34.50;;;;;;4982959;28;20454;-71
2022/01/19 06:21:41;;;;;;;13.03;7.80;;;1.30;1.00;;;;;;4984456;28;20507;-72
2022/01/19 06:24:08;;;;;;;9.87;7.00;;;1.30;1.00;;;;;;4981181;28;20455;-73
2022/01/19 06:26:35;;;;;;;12.20;8.60;;;1.20;1.00;;;;;;4978245;28;20580;-72
2022/01/19 06:29:03;;;;;;;13.80;8.97;;;1.10;1.00;;;;;;4982463;28;20495;-72
2022/01/19 06:31:31;;;;;;;12.90;8.23;;;1.00;1.00;;;;;;4985093;28;20468;-72
2022/01/19 06:33:58;;;;;;;11.30;7.00;;;1.00;1.00;;;;;;4981192;28;20453;-72
2022/01/19 06:36:25;;;;;;;11.17;6.80;;;;;;;;;;4990837;28;20480;-73
2022/01/19 06:38:53;;;;;;;11.63;6.90;;;;;;;;;;4980805;28;20526;-72
2022/01/19 06:41:20;;;;;;;11.37;8.53;;;;;;;;;;4988851;28;20638;-72
2022/01/19 06:43:47;;;;;;;9.90;7.20;;;;;;;;;;4990948;28;20459;-72
2022/01/19 06:46:14;;;;;;;13.33;7.43;;;;;;;;;;4981852;28;20486;-72
2022/01/19 06:48:43;;;;;;;10.10;7.47;;;;;;;;;;4984078;28;20480;-72
2022/01/19 06:51:10;;;;;;;17.37;8.70;;;;;;;;;;4989168;28;20463;-72
2022/01/19 06:53:38;;;;;;;12.97;7.90;;;;;;;;;;4987070;28;20487;-72
2022/01/19 06:56:05;;;;;;;16.80;8.50;;;;;;;;;;4981980;28;20793;-72
2022/01/19 06:58:32;;;;;;;13.87;8.00;;;;;;;;;;4983349;28;20552;-72
2022/01/19 07:00:59;;;;;;;15.53;9.17;;;;;;;;;;4988037;28;20453;-72
2022/01/19 07:03:26;;;;;;;17.23;8.97;;;;;;;;;;4988637;28;20461;-72
2022/01/19 07:05:55;;;;;;;11.70;8.10;;;;;;;;;;4987881;28;20569;-73
2022/01/19 07:08:22;;;;;;;11.80;8.07;;;;;;;;;;4988662;28;20445;-72
2022/01/19 07:10:49;;;;;;;12.77;8.60;;;;;;;;;;4981685;28;20536;-73
2022/01/19 07:13:17;;;;;;;13.67;8.93;;;;;;;;;;4999600;28;21008;-73
2022/01/19 07:15:44;;;;;;;11.70;8.10;;;;;;;;;;4986931;28;20457;-73
2022/01/19 07:18:12;;;;;;;15.33;9.13;;;;;;;;;;4988602;28;20449;-74
2022/01/19 07:20:39;;;;;;;11.27;7.10;;;;;;;;;;4981710;28;21008;-72
2022/01/19 07:23:07;;;;;;;10.27;8.00;;;;;;;;;;4981641;28;20453;-71
2022/01/19 07:25:34;;;;;;;12.13;8.13;;;;;;;;;;4986542;28;20497;-73
2022/01/19 07:28:02;;;;;;;13.67;8.03;;;;;;;;;;4987982;28;20448;-73
2022/01/19 07:30:29;;;;;;;12.03;7.83;;;;;;;;;;4983219;28;20453;-73
2022/01/19 07:32:57;;;;;;;11.30;7.10;;;;;;;;;;4981002;28;20549;-74
2022/01/19 07:35:24;;;;;;;12.37;8.90;;;;;;;;;;4994433;28;20455;-73
2022/01/19 07:37:51;;;;;;;12.10;8.50;;;;;;;;;;4991900;28;20547;-73
2022/01/19 07:40:20;;;;;;;14.70;8.23;;;;;;;;;;4983591;28;20487;-74
2022/01/19 07:42:47;;;;;;;12.10;9.00;;;;;;;;;;4985862;28;20837;-73
2022/01/19 07:45:14;;;;;;;8.43;7.23;;;;;;;;;;4984845;28;20491;-73
2022/01/19 07:47:42;;;;;;;16.20;8.80;;;;;;;;;;4987440;28;20445;-72
2022/01/19 07:50:10;;;;;;;16.00;8.50;;;;;;;;;;4984950;28;20459;-72
2022/01/19 07:52:37;;;;;;;12.10;8.70;;;;;;;;;;4980408;28;20519;-72
2022/01/19 07:55:05;;;;;;;18.67;10.17;;;;;;;;;;4983894;28;20812;-73
2022/01/19 07:57:33;;;;;;;14.60;9.40;;;;;;;;;;4988283;28;20456;-73
2022/01/19 08:00:00;;;;;;;15.33;10.00;;;;;;;;;;4985194;28;20717;-72
2022/01/19 08:02:32;;;;;;;19.40;11.20;;;;;;;;;;4980658;28;20445;-73
2022/01/19 08:05:00;;;;;;;19.60;11.63;;;;;;;;;;4981763;28;20478;-73
2022/01/19 08:07:27;;;;;;;15.03;10.80;;;;;;;;;;4986566;28;20540;-73
2022/01/19 08:09:54;;;;;;;13.63;8.87;;;;;;;;;;4985636;28;20540;-73
2022/01/19 08:12:21;;;;;;;13.97;9.10;;;;;;;;;;4982683;28;20453;-73
2022/01/19 08:14:50;;;;;;;13.37;9.90;;;;;;;;;;5000312;28;20946;-72
2022/01/19 08:17:19;;;;;;;17.73;10.37;;;;;;;;;;4980379;28;20800;-73
2022/01/19 08:19:47;;;;;;;15.23;10.73;;;;;;;;;;4979969;28;20541;-71
2022/01/19 08:22:15;;;;;;;16.60;9.53;;;;;;;;;;4986605;28;20926;-71
2022/01/19 08:24:42;;;;;;;16.77;10.50;;;;;;;;;;4986863;28;20452;-71
2022/01/19 08:27:09;;;;;;;16.83;9.43;;;;;;;;;;4981395;28;20563;-71
2022/01/19 08:29:37;;;;;;;14.50;9.13;;;;;;;;;;4980217;28;20514;-72
2022/01/19 08:32:06;;;;;;;13.63;9.00;;;;;;;;;;4985689;28;20481;-73
2022/01/19 08:34:33;;;;;;;17.77;9.83;;;;;;;;;;4988445;28;20453;-73
2022/01/19 08:37:01;;;;;;;23.30;10.47;;;;;;;;;;4992075;28;20965;-73
2022/01/19 08:39:28;;;;;;;15.67;10.70;;;;;;;;;;4980612;28;20951;-73
2022/01/19 08:41:56;;;;;;;19.63;9.47;;;;;;;;;;4983731;28;20465;-73
2022/01/19 08:44:23;;;;;;;13.30;9.63;;;;;;;;;;4991872;28;20453;-71
2022/01/19 08:46:51;;;;;;;15.10;10.10;;;;;;;;;;4982022;28;20524;-73
2022/01/19 08:49:19;;;;;;;15.67;9.83;;;;;;;;;;4979729;28;20462;-72
2022/01/19 08:51:46;;;;;;;21.77;10.07;;;;;;;;;;4982640;28;20478;-72
2022/01/19 08:54:14;;;;;;;17.67;10.63;;;;;;;;;;4986808;28;20855;-72
2022/01/19 08:56:41;;;;;;;11.70;9.43;;;;;;;;;;4982694;28;20813;-72
2022/01/19 08:59:08;;;;;;;29.03;10.63;;;;;;;;;;4979732;28;20460;-73
2022/01/19 09:01:35;;;;;;;16.70;10.80;;;;;;;;;;4982452;28;20544;-72
2022/01/19 09:04:03;;;;;;;15.00;11.00;;;;;;;;;;4986955;28;20855;-73
2022/01/19 09:06:31;;;;;;;17.87;10.00;;;;;;;;;;4983458;28;20539;-72
2022/01/19 09:08:58;;;;;;;18.87;10.70;;;;;;;;;;4978627;28;20953;-73
2022/01/19 09:11:26;;;;;;;15.30;10.80;;;;;;;;;;4982262;28;20516;-73
2022/01/19 09:13:53;;;;;;;15.80;10.13;;;;;;;;;;4999712;28;20480;-73
2022/01/19 09:16:20;;;;;;;15.93;10.30;;;;;;;;;;4981292;28;20823;-73
2022/01/19 09:18:48;;;;;;;18.93;10.07;;;;;;;;;;4985763;28;20534;-72
2022/01/19 09:21:15;;;;;;;16.17;10.20;;;;;;;;;;4984434;28;20492;-72
2022/01/19 09:23:44;;;;;;;13.90;10.40;;;;;;;;;;4978670;28;20528;-71
2022/01/19 09:26:11;;;;;;;18.30;11.17;;;;;;;;;;4980178;28;21000;-71
2022/01/19 09:28:38;;;;;;;14.50;8.87;;;;;;;;;;4985393;28;20473;-71
2022/01/19 09:31:12;;;;;;;20.53;11.10;;;;;;;;;;4985220;28;20447;-73
2022/01/19 09:33:41;;;;;;;13.00;9.40;;;;;;;;;;4984863;28;20463;-71
2022/01/19 09:36:29;;;;;;;13.17;9.87;;;;;;;;;;4987363;28;20449;-74
2022/01/19 09:38:57;;;;;;;11.57;8.70;;;;;;;;;;4980822;28;20746;-72
2022/01/19 09:41:24;;;;;;;15.80;10.20;;;;;;;;;;4985831;28;20478;-72
2022/01/19 09:43:52;;;;;;;14.93;9.60;;;;;;;;;;4988982;28;20548;-72
2022/01/19 09:46:19;;;;;;;18.40;10.20;;;;;;;;;;4978898;28;20576;-72
2022/01/19 09:48:46;;;;;;;12.77;8.77;;;;;;;;;;4980308;28;20553;-73
2022/01/19 09:51:14;;;;;;;13.50;9.47;;;;;;;;;;4985550;28;20507;-72
2022/01/19 09:53:41;;;;;;;13.27;8.40;;;;;;;;;;4984055;28;20453;-72
2022/01/19 09:56:10;;;;;;;14.73;9.90;;;;;;;;;;4978898;28;20569;-72
2022/01/19 09:58:37;;;;;;;14.53;8.73;;;;;;;;;;4978964;28;20454;-71
2022/01/19 10:01:04;;;;;;;12.80;8.57;;;;;;;;;;4978948;28;20996;-72
2022/01/19 10:03:33;;;;;;;14.93;9.20;;;;;;;;;;4979310;28;20449;-72
2022/01/19 10:06:07;;;;;;;11.80;8.77;;;;;;;;;;4984107;28;20605;-72
2022/01/19 10:08:36;;;;;;;12.57;8.10;;;;;;;;;;4985703;28;20440;-72
2022/01/19 10:11:13;;;;;;;9.73;8.03;;;;;;;;;;4980494;28;20449;-72
2022/01/19 10:19:14;;;;;;;12.43;8.07;;;;;;;;;;4980917;28;20424;-72
2022/01/19 10:21:56;;;;;;;13.23;8.07;;;;;;;;;;4977798;28;20460;-73
2022/01/19 10:24:33;;;;;;;12.10;8.07;;;;;;;;;;4980602;28;20445;-72
2022/01/19 10:27:15;;;;;;;11.07;7.63;;;;;;;;;;4983740;28;20616;-72
2022/01/19 10:29:44;;;;;;;14.40;7.50;;;;;;;;;;4984240;28;20889;-72
2022/01/19 10:32:11;;;;;;;11.60;7.60;;;;;;;;;;4980556;28;20542;-71
2022/01/19 10:34:38;;;;;;;12.03;7.10;;;;;;;;;;4979013;28;20857;-70
2022/01/19 10:37:05;;;;;;;12.30;7.83;;;;;;;;;;4991218;28;20519;-71
2022/01/19 10:39:40;;;;;;;13.90;8.70;;;;;;;;;;4978196;28;20456;-71
2022/01/19 10:42:09;;;;;;;11.70;8.43;;;;;;;;;;4981775;28;20528;-71
2022/01/19 10:44:38;;;;;;;13.83;9.10;;;;;;;;;;4985055;28;20454;-71
2022/01/19 10:47:07;;;;;;;10.73;7.97;;;;;;;;;;4982639;28;20491;-71
2022/01/19 10:49:47;;;;;;;9.97;8.23;;;;;;;;;;4978759;28;20448;-71
2022/01/19 10:52:26;;;;;;;15.87;8.57;;;;;;;;;;4978732;28;20446;-71
2022/01/19 10:54:53;;;;;;;12.40;7.90;;;;;;;;;;4979219;28;20445;-71
2022/01/19 10:57:21;;;;;;;19.83;7.50;;;;;;;;;;4978259;28;20457;-71
2022/01/19 10:59:50;;;;;;;15.73;8.83;;;;;;;;;;4982959;28;20512;-71
2022/01/19 11:02:19;;;;;;;11.53;7.93;;;;;;;;;;4984915;28;20951;-72
2022/01/19 11:04:47;;;;;;;10.83;8.60;;;;;;;;;;4980649;28;20464;-72
2022/01/19 11:07:18;;;;;;;11.27;7.70;;;;;;;;;;4978281;28;20488;-73
2022/01/19 11:09:56;;;;;;;10.17;8.00;;;;;;;;;;4980705;28;20442;-71
2022/01/19 11:12:26;;;;;;;10.20;7.97;;;;;;;;;;4989307;28;20492;-71
2022/01/19 11:14:53;;;;;;;11.10;7.97;;;;;;;;;;4997853;28;20448;-71
2022/01/19 11:17:22;;;;;;;12.70;8.87;;;;;;;;;;4978096;28;20864;-71
2022/01/19 11:19:50;;;;;;;11.30;8.27;;;;;;;;;;4978615;28;20468;-71
2022/01/19 11:22:20;;;;;;;11.13;7.40;;;;;;;;;;4984646;28;20449;-71
2022/01/19 11:24:57;;;;;;;11.83;7.90;;;;;;;;;;4984038;28;20468;-72
2022/01/19 11:27:28;;;;;;;13.03;8.33;;;;;;;;;;4986982;28;20969;-71
2022/01/19 11:30:10;;;;;;;11.83;7.43;;;;;;;;;;4987956;28;20453;-71
2022/01/19 11:32:39;;;;;;;12.00;8.53;;;;;;;;;;4982354;28;20492;-70
2022/01/19 11:35:07;;;;;;;13.10;7.43;;;;;;;;;;4983903;28;20872;-72
2022/01/19 11:37:35;;;;;;;10.67;7.97;;;;;;;;;;4994617;28;20536;-71
2022/01/19 11:40:07;;;;;;;12.57;8.13;;;;;;;;;;4987256;28;20968;-72
2022/01/19 11:42:34;;;;;;;13.73;8.90;;;;;;;;;;4991611;28;20451;-71
2022/01/19 11:45:01;;;;;;;16.13;10.23;;;;;;;;;;4986285;28;20508;-71
2022/01/19 11:47:31;;;;;;;10.67;9.33;;;;;;;;;;4988248;28;20487;-71
2022/01/19 11:50:00;;;;;;;24.10;9.80;;;;;;;;;;4982963;28;20460;-71
2022/01/19 11:52:32;;;;;;;15.33;9.63;;;;;;;;;;4981103;28;20549;-71
2022/01/19 11:55:14;;;;;;;19.03;11.10;;;;;;;;;;4984076;28;20466;-71
2022/01/19 11:57:42;;;;;;;13.43;10.30;;;;;;;;;;4986996;28;20450;-71
2022/01/19 12:00:14;;;;;;;19.67;9.87;;;;;;;;;;4986476;28;20459;-71
2022/01/19 12:02:51;;;;;;;14.03;9.70;;;;;;;;;;4980363;28;20805;-71
2022/01/19 12:05:22;;;;;;;14.20;9.40;;;;;;;;;;4992762;28;20453;-71
2022/01/19 12:07:52;;;;;;;14.27;9.57;;;;;;;;;;4981323;28;20495;-72
2022/01/19 12:10:29;;;;;;;12.43;9.50;;;;;;;;;;4980890;28;20800;-71
2022/01/19 12:13:16;;;;;;;15.47;10.37;;;;;;;;;;4996354;28;20711;-71
2022/01/19 12:15:49;;;;;;;13.97;8.93;;;;;;;;;;4987156;28;20547;-71
2022/01/19 12:18:31;;;;;;;11.77;8.93;;;;;;;;;;4987487;28;20467;-71
2022/01/19 12:21:00;;;;;;;12.60;9.33;;;;;;;;;;4983127;28;20597;-71
2022/01/19 12:23:29;;;;;;;13.27;8.67;;;;;;;;;;4980607;28;20879;-71
2022/01/19 12:25:57;;;;;;;12.37;7.70;;;;;;;;;;4982803;28;20905;-71
2022/01/19 12:28:40;;;;;;;15.73;8.60;;;;;;;;;;4987221;28;20622;-72
2022/01/19 12:31:28;;;;;;;14.07;8.33;;;;;;;;;;4987046;28;20870;-71
2022/01/19 12:34:18;;;;;;;14.50;8.20;;;;;;;;;;4983706;28;20449;-71
2022/01/19 12:36:47;;;;;;;11.90;8.97;;;;;;;;;;4978422;28;20437;-71
2022/01/19 12:39:34;;;;;;;10.83;7.17;;;;;;;;;;4980513;28;20450;-72
2022/01/19 12:42:02;;;;;;;9.10;7.70;;;;;;;;;;4983979;28;20938;-72
2022/01/19 12:44:40;;;;;;;10.23;7.60;;;;;;;;;;4991790;28;20529;-72
2022/01/19 12:47:27;;;;;;;9.70;7.40;;;;;;;;;;4985746;28;20484;-71
2022/01/19 12:49:57;;;;;;;12.03;7.60;;;;;;;;;;4980964;28;20459;-72
2022/01/19 12:52:26;;;;;;;10.13;7.07;;;;;;;;;;4979528;28;20541;-71
2022/01/19 12:54:54;;;;;;;9.90;7.50;;;;;;;;;;4983449;28;20966;-72
2022/01/19 12:57:21;;;;;;;11.07;7.50;;;;;;;;;;4986928;28;20461;-72
2022/01/19 12:59:49;;;;;;;14.60;8.30;;;;;;;;;;4982133;28;20533;-72
2022/01/19 13:02:17;;;;;;;11.63;7.40;;;;;;;;;;4979883;28;20539;-72
2022/01/19 13:04:46;;;;;;;13.63;7.27;;;;;;;;;;4982653;28;20497;-72
2022/01/19 13:07:18;;;;;;;10.50;7.20;;;;;;;;;;4986521;28;20489;-72
2022/01/19 13:10:13;;;;;;;12.73;6.83;;;;;;;;;;4983671;28;20507;-72
2022/01/19 13:12:45;;;;;;;11.87;8.10;;;;;;;;;;4983758;28;21010;-72
2022/01/19 13:15:12;;;;;;;10.47;7.40;;;;;;;;;;4993928;28;20453;-72
2022/01/19 13:17:43;;;;;;;15.87;8.40;;;;;;;;;;4981670;28;20511;-72
2022/01/19 13:20:11;;;;;;;14.90;8.20;;;;;;;;;;4979870;28;20532;-72
2022/01/19 13:22:50;;;;;;;9.53;8.00;;;;;;;;;;4981763;28;20529;-71
2022/01/19 13:25:22;;;;;;;9.40;7.30;;;;;;;;;;4985827;28;20491;-73
2022/01/19 13:27:50;;;;;;;12.70;8.70;;;;;;;;;;4985316;28;20885;-72
2022/01/19 13:30:17;;;;;;;10.10;7.40;;;;;;;;;;4985922;28;20496;-72
2022/01/19 13:32:45;;;;;;;13.20;6.93;;;;;;;;;;4985123;28;20548;-72
2022/01/19 13:35:12;;;;;;;11.70;8.37;;;;;;;;;;4979736;28;20445;-72
2022/01/19 13:37:42;;;;;;;13.33;7.87;;;;;;;;;;4990802;28;20993;-72
2022/01/19 13:40:12;;;;;;;10.90;7.27;;;;;;;;;;4980250;28;20539;-72
2022/01/19 13:42:42;;;;;;;9.67;6.87;;;;;;;;;;4983661;28;20527;-71
2022/01/19 13:45:13;;;;;;;8.23;6.23;;;;;;;;;;4982778;28;20451;-72
2022/01/19 13:48:02;;;;;;;8.53;6.27;;;;;;;;;;4984485;28;20481;-72
2022/01/19 13:50:30;;;;;;;8.97;6.93;;;;;;;;;;4985447;28;20434;-72
2022/01/19 13:52:57;;;;;;;11.50;6.60;;;;;;;;;;4978304;28;20535;-72
2022/01/19 13:55:26;;;;;;;11.70;7.70;;;;;;;;;;4979082;28;20460;-72
2022/01/19 13:58:03;;;;;;;9.93;6.43;;;;;;;;;;4978766;28;20463;-72
2022/01/19 14:00:31;;;;;;;15.63;6.77;;;;;;;;;;4979448;28;20446;-72
2022/01/19 14:03:02;;;;;;;8.13;6.37;;;;;;;;;;4983351;28;20516;-72
2022/01/19 14:05:36;;;;;;;12.90;7.27;;;;;;;;;;4985267;28;20939;-72
2022/01/19 14:08:04;;;;;;;9.43;6.40;;;;;;;;;;4972612;28;20485;-72
2022/01/19 14:10:41;;;;;;;7.90;6.33;;;;;;;;;;4976039;28;20832;-72
2022/01/19 14:13:30;;;;;;;6.23;5.30;;;;;;;;;;4996370;28;20928;-72
2022/01/19 14:15:58;;;;;;;9.57;5.97;;;;;;;;;;4971626;28;20774;-72
2022/01/19 14:18:25;;;;;;;8.40;4.67;;;;;;;;;;4972635;28;20527;-71
2022/01/19 14:21:12;;;;;;;6.50;4.73;;;;;;;;;;4972083;28;20454;-72
2022/01/19 14:23:39;;;;;;;5.10;3.73;;;;;;;;;;4988890;28;20920;-71
2022/01/19 14:26:08;;;;;;;7.60;4.80;;;;;;;;;;4991446;28;20515;-72
2022/01/19 14:28:38;;;;;;;7.43;4.60;;;;;;;;;;4991074;28;20576;-72
2022/01/19 14:31:05;;;;;;;7.90;4.23;;;;;;;;;;4991987;28;20457;-72
2022/01/19 14:33:32;;;;;;;8.27;4.90;;;;;;;;;;4991948;28;20456;-72
2022/01/19 14:36:01;;;;;;;6.57;4.17;;;;;;;;;;4990381;28;20445;-71
2022/01/19 14:38:32;;;;;;;6.07;4.20;;;;;;;;;;4979135;28;20854;-73
2022/01/19 14:41:01;;;;;;;7.23;4.80;;;;;;;;;;4991078;28;20453;-72
2022/01/19 14:43:38;;;;;;;10.73;4.90;;;;;;;;;;4991585;28;20480;-71
2022/01/19 14:46:09;;;;;;;5.90;4.07;;;;;;;;;;4978050;28;20457;-73
2022/01/19 14:48:38;;;;;;;7.67;4.90;;;;;;;;;;4981519;28;20477;-72
2022/01/19 14:51:32;;;;;;;7.47;5.47;;;;;;;;;;4985371;28;20454;-74
2022/01/19 14:54:00;;;;;;;5.63;5.03;;;;;;;;;;4939977;28;20463;-73
2022/01/19 14:56:28;;;;;;;6.67;4.93;;;;;;;;;;4990650;28;20468;-72
2022/01/19 14:59:07;;;;;;;8.60;5.30;;;;;;;;;;4990473;28;20488;-73
2022/01/19 15:01:35;;;;;;;5.80;4.70;;;;;;;;;;4994937;28;20813;-73
2022/01/19 15:04:03;;;;;;;8.03;5.00;;;;;;;;;;4995226;28;20449;-73
2022/01/19 15:06:31;;;;;;;11.60;6.03;;;;;;;;;;4994523;28;20551;-73
2022/01/19 15:08:58;;;;;;;9.60;5.53;;;;;;;;;;4994118;28;20582;-73
2022/01/19 15:11:25;;;;;;;6.77;5.93;;;;;;;;;;4995064;28;20539;-72
2022/01/19 15:13:53;;;;;;;7.03;5.73;;;;;;;;;;4994501;28;20452;-72
2022/01/19 15:16:22;;;;;;;11.23;6.17;;;;;;;;;;4983257;28;20449;-73
2022/01/19 15:18:49;;;;;;;9.97;6.03;;;;;;;;;;4988137;28;20481;-72
2022/01/19 15:21:17;;;;;;;8.13;5.53;;;;;;;;;;4987392;28;21101;-72
2022/01/19 15:23:45;;;;;;;8.33;5.23;;;;;;;;;;4981193;28;20444;-72
2022/01/19 15:26:12;;;;;;;8.10;5.70;;;;;;;;;;4982226;28;20575;-72
2022/01/19 15:28:39;;;;;;;9.50;5.70;;;;;;;;;;4987509;28;20486;-72
2022/01/19 15:31:08;;;;;;;8.70;5.80;;;;;;;;;;4988385;28;20452;-72
2022/01/19 15:33:37;;;;;;;11.07;6.83;;;;;;;;;;4988315;28;20454;-72
2022/01/19 15:36:06;;;;;;;13.80;6.50;;;;;;;;;;4989297;28;20649;-72
2022/01/19 15:38:34;;;;;;;8.20;5.73;;;;;;;;;;4987107;28;20485;-72
2022/01/19 15:41:01;;;;;;;10.40;6.17;;;;;;;;;;4987858;28;20453;-72
2022/01/19 15:43:28;;;;;;;8.70;6.17;;;;;;;;;;4988300;28;20527;-72
2022/01/19 15:45:55;;;;;;;7.90;6.40;;;;;;;;;;4979888;28;20977;-72